sensor_id;sensor_type;location;lat;lon;timestamp;P1;durP1;ratioP1;P2;durP2;ratioP2
37895;SDS011;23733;53.254;10.430;2022-07-18T00:01:54;4.47;;;2.90;;
37895;SDS011;23733;53.254;10.430;2022-07-18T00:04:21;5.60;;;3.30;;
37895;SDS011;23733;53.254;10.430;2022-07-18T00:06:47;3.83;;;2.73;;
37895;SDS011;23733;53.254;10.430;2022-07-18T00:09:13;5.43;;;2.97;;
37895;SDS011;23733;53.254;10.430;2022-07-18T00:11:39;5.27;;;3.33;;
37895;SDS011;23733;53.254;10.430;2022-07-18T00:14:05;4.67;;;3.00;;
37895;SDS011;23733;53.254;10.430;2022-07-18T00:16:31;4.40;;;3.20;;
37895;SDS011;23733;53.254;10.430;2022-07-18T00:18:57;5.70;;;3.00;;
37895;SDS011;23733;53.254;10.430;2022-07-18T00:21:24;7.40;;;3.20;;
37895;SDS011;23733;53.254;10.430;2022-07-18T00:23:51;5.43;;;3.00;;
37895;SDS011;23733;53.254;10.430;2022-07-18T00:26:17;6.50;;;2.70;;
37895;SDS011;23733;53.254;10.430;2022-07-18T00:28:43;4.20;;;3.10;;
37895;SDS011;23733;53.254;10.430;2022-07-18T00:31:09;3.83;;;3.13;;
37895;SDS011;23733;53.254;10.430;2022-07-18T00:33:35;4.77;;;2.87;;
37895;SDS011;23733;53.254;10.430;2022-07-18T00:36:01;6.37;;;2.80;;
37895;SDS011;23733;53.254;10.430;2022-07-18T00:38:27;5.90;;;2.97;;
37895;SDS011;23733;53.254;10.430;2022-07-18T00:40:53;4.23;;;2.80;;
37895;SDS011;23733;53.254;10.430;2022-07-18T00:43:19;4.07;;;2.70;;
37895;SDS011;23733;53.254;10.430;2022-07-18T00:45:46;4.97;;;3.10;;
37895;SDS011;23733;53.254;10.430;2022-07-18T00:48:14;3.97;;;3.10;;
37895;SDS011;23733;53.254;10.430;2022-07-18T00:50:41;3.47;;;2.80;;
37895;SDS011;23733;53.254;10.430;2022-07-18T00:53:08;5.20;;;2.57;;
37895;SDS011;23733;53.254;10.430;2022-07-18T00:55:42;4.43;;;2.50;;
37895;SDS011;23733;53.254;10.430;2022-07-18T00:58:10;3.40;;;2.53;;
37895;SDS011;23733;53.254;10.430;2022-07-18T01:00:37;3.83;;;2.80;;
37895;SDS011;23733;53.254;10.430;2022-07-18T01:03:22;3.50;;;2.73;;
37895;SDS011;23733;53.254;10.430;2022-07-18T01:05:49;3.80;;;2.73;;
37895;SDS011;23733;53.254;10.430;2022-07-18T01:08:15;4.10;;;2.67;;
37895;SDS011;23733;53.254;10.430;2022-07-18T01:10:41;4.33;;;2.90;;
37895;SDS011;23733;53.254;10.430;2022-07-18T01:13:07;6.83;;;3.03;;
37895;SDS011;23733;53.254;10.430;2022-07-18T01:15:34;4.93;;;3.20;;
37895;SDS011;23733;53.254;10.430;2022-07-18T01:18:02;4.90;;;2.70;;
37895;SDS011;23733;53.254;10.430;2022-07-18T01:20:28;5.07;;;2.97;;
37895;SDS011;23733;53.254;10.430;2022-07-18T01:22:56;6.93;;;2.83;;
37895;SDS011;23733;53.254;10.430;2022-07-18T01:25:22;4.37;;;2.90;;
37895;SDS011;23733;53.254;10.430;2022-07-18T01:27:48;5.67;;;2.90;;
37895;SDS011;23733;53.254;10.430;2022-07-18T01:30:14;3.07;;;2.50;;
37895;SDS011;23733;53.254;10.430;2022-07-18T01:32:41;5.07;;;3.10;;
37895;SDS011;23733;53.254;10.430;2022-07-18T01:35:08;5.10;;;3.15;;
37895;SDS011;23733;53.254;10.430;2022-07-18T01:37:34;4.33;;;2.70;;
37895;SDS011;23733;53.254;10.430;2022-07-18T01:40:00;4.20;;;2.80;;
37895;SDS011;23733;53.254;10.430;2022-07-18T01:42:26;3.70;;;2.50;;
37895;SDS011;23733;53.254;10.430;2022-07-18T01:44:52;5.03;;;3.00;;
37895;SDS011;23733;53.254;10.430;2022-07-18T01:47:18;4.73;;;2.90;;
37895;SDS011;23733;53.254;10.430;2022-07-18T01:49:44;4.73;;;3.00;;
37895;SDS011;23733;53.254;10.430;2022-07-18T01:52:10;5.00;;;2.63;;
37895;SDS011;23733;53.254;10.430;2022-07-18T01:54:37;4.47;;;2.70;;
37895;SDS011;23733;53.254;10.430;2022-07-18T01:57:03;5.07;;;3.10;;
37895;SDS011;23733;53.254;10.430;2022-07-18T01:59:31;4.70;;;2.90;;
37895;SDS011;23733;53.254;10.430;2022-07-18T02:01:57;5.37;;;3.40;;
37895;SDS011;23733;53.254;10.430;2022-07-18T02:04:23;3.00;;;2.40;;
37895;SDS011;23733;53.254;10.430;2022-07-18T02:07:09;4.07;;;2.90;;
37895;SDS011;23733;53.254;10.430;2022-07-18T02:09:36;5.67;;;3.10;;
37895;SDS011;23733;53.254;10.430;2022-07-18T02:12:02;3.33;;;2.60;;
37895;SDS011;23733;53.254;10.430;2022-07-18T02:14:28;4.53;;;2.60;;
37895;SDS011;23733;53.254;10.430;2022-07-18T02:16:54;3.97;;;2.87;;
37895;SDS011;23733;53.254;10.430;2022-07-18T02:19:20;4.27;;;2.93;;
37895;SDS011;23733;53.254;10.430;2022-07-18T02:21:46;3.87;;;2.87;;
37895;SDS011;23733;53.254;10.430;2022-07-18T02:24:12;4.93;;;3.20;;
37895;SDS011;23733;53.254;10.430;2022-07-18T02:26:38;5.77;;;3.10;;
37895;SDS011;23733;53.254;10.430;2022-07-18T02:29:04;3.80;;;2.80;;
37895;SDS011;23733;53.254;10.430;2022-07-18T02:31:30;4.50;;;2.70;;
37895;SDS011;23733;53.254;10.430;2022-07-18T02:33:56;5.33;;;3.07;;
37895;SDS011;23733;53.254;10.430;2022-07-18T02:36:22;6.03;;;2.85;;
37895;SDS011;23733;53.254;10.430;2022-07-18T02:38:48;3.00;;;2.60;;
37895;SDS011;23733;53.254;10.430;2022-07-18T02:41:14;5.40;;;2.90;;
37895;SDS011;23733;53.254;10.430;2022-07-18T02:43:40;4.97;;;2.70;;
37895;SDS011;23733;53.254;10.430;2022-07-18T02:46:06;5.40;;;3.10;;
37895;SDS011;23733;53.254;10.430;2022-07-18T02:48:32;4.43;;;3.00;;
37895;SDS011;23733;53.254;10.430;2022-07-18T02:50:58;4.20;;;2.83;;
37895;SDS011;23733;53.254;10.430;2022-07-18T02:53:24;5.10;;;3.23;;
37895;SDS011;23733;53.254;10.430;2022-07-18T02:55:50;5.90;;;3.03;;
37895;SDS011;23733;53.254;10.430;2022-07-18T02:58:17;4.67;;;3.20;;
37895;SDS011;23733;53.254;10.430;2022-07-18T03:00:43;6.27;;;3.60;;
37895;SDS011;23733;53.254;10.430;2022-07-18T03:03:09;5.87;;;2.80;;
37895;SDS011;23733;53.254;10.430;2022-07-18T03:05:35;3.13;;;2.73;;
37895;SDS011;23733;53.254;10.430;2022-07-18T03:08:01;4.90;;;2.90;;
37895;SDS011;23733;53.254;10.430;2022-07-18T03:10:27;3.27;;;2.43;;
37895;SDS011;23733;53.254;10.430;2022-07-18T03:12:53;4.63;;;2.97;;
37895;SDS011;23733;53.254;10.430;2022-07-18T03:15:20;5.17;;;3.13;;
37895;SDS011;23733;53.254;10.430;2022-07-18T03:17:46;5.40;;;3.07;;
37895;SDS011;23733;53.254;10.430;2022-07-18T03:20:12;6.60;;;3.53;;
37895;SDS011;23733;53.254;10.430;2022-07-18T03:22:38;5.53;;;2.97;;
37895;SDS011;23733;53.254;10.430;2022-07-18T03:25:04;5.63;;;3.10;;
37895;SDS011;23733;53.254;10.430;2022-07-18T03:27:30;5.50;;;2.83;;
37895;SDS011;23733;53.254;10.430;2022-07-18T03:29:56;4.10;;;2.70;;
37895;SDS011;23733;53.254;10.430;2022-07-18T03:32:22;5.17;;;2.80;;
37895;SDS011;23733;53.254;10.430;2022-07-18T03:34:48;5.03;;;3.10;;
37895;SDS011;23733;53.254;10.430;2022-07-18T03:37:14;5.70;;;3.03;;
37895;SDS011;23733;53.254;10.430;2022-07-18T03:39:40;6.47;;;3.10;;
37895;SDS011;23733;53.254;10.430;2022-07-18T03:42:06;4.93;;;2.83;;
37895;SDS011;23733;53.254;10.430;2022-07-18T03:44:32;6.30;;;3.67;;
37895;SDS011;23733;53.254;10.430;2022-07-18T03:46:58;8.07;;;3.20;;
37895;SDS011;23733;53.254;10.430;2022-07-18T03:49:24;5.50;;;3.00;;
37895;SDS011;23733;53.254;10.430;2022-07-18T03:51:50;6.27;;;3.27;;
37895;SDS011;23733;53.254;10.430;2022-07-18T03:54:16;4.50;;;2.93;;
37895;SDS011;23733;53.254;10.430;2022-07-18T03:56:42;5.27;;;3.27;;
37895;SDS011;23733;53.254;10.430;2022-07-18T03:59:08;3.80;;;2.80;;
37895;SDS011;23733;53.254;10.430;2022-07-18T04:01:34;4.67;;;3.10;;
37895;SDS011;23733;53.254;10.430;2022-07-18T04:04:00;9.70;;;3.40;;
37895;SDS011;23733;53.254;10.430;2022-07-18T04:06:26;6.33;;;2.80;;
37895;SDS011;23733;53.254;10.430;2022-07-18T04:08:53;4.97;;;3.40;;
37895;SDS011;23733;53.254;10.430;2022-07-18T04:11:19;5.70;;;3.10;;
37895;SDS011;23733;53.254;10.430;2022-07-18T04:13:52;6.63;;;3.70;;
37895;SDS011;23733;53.254;10.430;2022-07-18T04:16:19;3.80;;;3.00;;
37895;SDS011;23733;53.254;10.430;2022-07-18T04:18:45;5.10;;;2.90;;
37895;SDS011;23733;53.254;10.430;2022-07-18T04:21:12;4.30;;;2.70;;
37895;SDS011;23733;53.254;10.430;2022-07-18T04:23:38;6.07;;;3.13;;
37895;SDS011;23733;53.254;10.430;2022-07-18T04:26:05;6.33;;;3.07;;
37895;SDS011;23733;53.254;10.430;2022-07-18T04:28:31;4.50;;;3.00;;
37895;SDS011;23733;53.254;10.430;2022-07-18T04:30:58;7.47;;;3.30;;
37895;SDS011;23733;53.254;10.430;2022-07-18T04:33:24;4.80;;;3.10;;
37895;SDS011;23733;53.254;10.430;2022-07-18T04:35:50;4.23;;;3.07;;
37895;SDS011;23733;53.254;10.430;2022-07-18T04:38:16;8.10;;;3.43;;
37895;SDS011;23733;53.254;10.430;2022-07-18T04:40:42;5.87;;;3.50;;
37895;SDS011;23733;53.254;10.430;2022-07-18T04:43:08;7.37;;;3.00;;
37895;SDS011;23733;53.254;10.430;2022-07-18T04:45:35;6.40;;;3.03;;
37895;SDS011;23733;53.254;10.430;2022-07-18T04:48:03;5.57;;;3.07;;
37895;SDS011;23733;53.254;10.430;2022-07-18T04:50:30;5.80;;;2.97;;
37895;SDS011;23733;53.254;10.430;2022-07-18T04:52:57;4.33;;;3.17;;
37895;SDS011;23733;53.254;10.430;2022-07-18T04:55:24;5.50;;;2.87;;
37895;SDS011;23733;53.254;10.430;2022-07-18T04:57:51;7.07;;;3.23;;
37895;SDS011;23733;53.254;10.430;2022-07-18T05:00:23;4.60;;;3.00;;
37895;SDS011;23733;53.254;10.430;2022-07-18T05:02:50;5.90;;;3.10;;
37895;SDS011;23733;53.254;10.430;2022-07-18T05:05:18;3.80;;;2.63;;
37895;SDS011;23733;53.254;10.430;2022-07-18T05:07:45;3.87;;;2.90;;
37895;SDS011;23733;53.254;10.430;2022-07-18T05:10:13;4.47;;;2.83;;
37895;SDS011;23733;53.254;10.430;2022-07-18T05:12:41;6.63;;;2.90;;
37895;SDS011;23733;53.254;10.430;2022-07-18T05:15:09;4.77;;;3.00;;
37895;SDS011;23733;53.254;10.430;2022-07-18T05:17:37;6.07;;;2.93;;
37895;SDS011;23733;53.254;10.430;2022-07-18T05:20:05;5.17;;;3.20;;
37895;SDS011;23733;53.254;10.430;2022-07-18T05:22:33;4.03;;;2.57;;
37895;SDS011;23733;53.254;10.430;2022-07-18T05:25:00;4.90;;;2.60;;
37895;SDS011;23733;53.254;10.430;2022-07-18T05:27:27;3.63;;;2.60;;
37895;SDS011;23733;53.254;10.430;2022-07-18T05:29:53;5.60;;;2.87;;
37895;SDS011;23733;53.254;10.430;2022-07-18T05:32:19;4.47;;;2.63;;
37895;SDS011;23733;53.254;10.430;2022-07-18T05:34:45;9.47;;;2.80;;
37895;SDS011;23733;53.254;10.430;2022-07-18T05:37:11;5.47;;;2.70;;
37895;SDS011;23733;53.254;10.430;2022-07-18T05:39:37;5.70;;;2.93;;
37895;SDS011;23733;53.254;10.430;2022-07-18T05:42:03;4.77;;;2.53;;
37895;SDS011;23733;53.254;10.430;2022-07-18T05:44:29;3.93;;;2.60;;
37895;SDS011;23733;53.254;10.430;2022-07-18T05:46:55;4.30;;;2.33;;
37895;SDS011;23733;53.254;10.430;2022-07-18T05:49:21;5.87;;;3.13;;
37895;SDS011;23733;53.254;10.430;2022-07-18T05:51:47;5.30;;;2.67;;
37895;SDS011;23733;53.254;10.430;2022-07-18T05:54:13;4.43;;;2.27;;
37895;SDS011;23733;53.254;10.430;2022-07-18T05:56:45;4.57;;;2.43;;
37895;SDS011;23733;53.254;10.430;2022-07-18T05:59:12;4.53;;;2.67;;
37895;SDS011;23733;53.254;10.430;2022-07-18T06:01:38;5.10;;;2.50;;
37895;SDS011;23733;53.254;10.430;2022-07-18T06:04:04;3.47;;;2.50;;
37895;SDS011;23733;53.254;10.430;2022-07-18T06:06:30;3.60;;;2.60;;
37895;SDS011;23733;53.254;10.430;2022-07-18T06:08:57;4.30;;;2.83;;
37895;SDS011;23733;53.254;10.430;2022-07-18T06:11:23;4.30;;;2.20;;
37895;SDS011;23733;53.254;10.430;2022-07-18T06:13:49;5.37;;;2.90;;
37895;SDS011;23733;53.254;10.430;2022-07-18T06:16:15;6.17;;;2.27;;
37895;SDS011;23733;53.254;10.430;2022-07-18T06:18:41;6.00;;;2.83;;
37895;SDS011;23733;53.254;10.430;2022-07-18T06:21:07;4.80;;;2.53;;
37895;SDS011;23733;53.254;10.430;2022-07-18T06:23:33;5.43;;;2.67;;
37895;SDS011;23733;53.254;10.430;2022-07-18T06:26:01;4.57;;;2.77;;
37895;SDS011;23733;53.254;10.430;2022-07-18T06:28:27;5.27;;;2.27;;
37895;SDS011;23733;53.254;10.430;2022-07-18T06:30:54;3.90;;;2.20;;
37895;SDS011;23733;53.254;10.430;2022-07-18T06:33:20;4.83;;;2.30;;
37895;SDS011;23733;53.254;10.430;2022-07-18T06:35:47;3.57;;;2.40;;
37895;SDS011;23733;53.254;10.430;2022-07-18T06:38:14;4.70;;;2.60;;
37895;SDS011;23733;53.254;10.430;2022-07-18T06:40:41;3.67;;;2.20;;
37895;SDS011;23733;53.254;10.430;2022-07-18T06:43:07;3.43;;;2.20;;
37895;SDS011;23733;53.254;10.430;2022-07-18T06:45:34;2.60;;;2.20;;
37895;SDS011;23733;53.254;10.430;2022-07-18T06:48:00;5.97;;;2.30;;
37895;SDS011;23733;53.254;10.430;2022-07-18T06:50:26;3.80;;;2.20;;
37895;SDS011;23733;53.254;10.430;2022-07-18T06:52:53;3.80;;;2.20;;
37895;SDS011;23733;53.254;10.430;2022-07-18T06:55:19;4.00;;;2.20;;
37895;SDS011;23733;53.254;10.430;2022-07-18T06:57:45;3.27;;;2.30;;
37895;SDS011;23733;53.254;10.430;2022-07-18T07:00:12;3.57;;;2.20;;
37895;SDS011;23733;53.254;10.430;2022-07-18T07:02:49;3.40;;;2.10;;
37895;SDS011;23733;53.254;10.430;2022-07-18T07:05:16;5.53;;;2.60;;
37895;SDS011;23733;53.254;10.430;2022-07-18T07:07:43;3.77;;;2.20;;
37895;SDS011;23733;53.254;10.430;2022-07-18T07:10:10;3.77;;;2.10;;
37895;SDS011;23733;53.254;10.430;2022-07-18T07:12:38;3.73;;;2.03;;
37895;SDS011;23733;53.254;10.430;2022-07-18T07:15:05;2.93;;;1.93;;
37895;SDS011;23733;53.254;10.430;2022-07-18T07:17:32;2.80;;;2.03;;
37895;SDS011;23733;53.254;10.430;2022-07-18T07:19:58;3.77;;;2.13;;
37895;SDS011;23733;53.254;10.430;2022-07-18T07:22:24;6.70;;;2.40;;
37895;SDS011;23733;53.254;10.430;2022-07-18T07:24:50;4.10;;;2.37;;
37895;SDS011;23733;53.254;10.430;2022-07-18T07:27:16;6.10;;;2.30;;
37895;SDS011;23733;53.254;10.430;2022-07-18T07:29:43;6.70;;;2.20;;
37895;SDS011;23733;53.254;10.430;2022-07-18T07:32:09;5.43;;;2.70;;
37895;SDS011;23733;53.254;10.430;2022-07-18T07:34:35;5.63;;;2.50;;
37895;SDS011;23733;53.254;10.430;2022-07-18T07:37:01;3.37;;;2.50;;
37895;SDS011;23733;53.254;10.430;2022-07-18T07:39:28;4.57;;;2.50;;
37895;SDS011;23733;53.254;10.430;2022-07-18T07:41:54;4.73;;;3.37;;
37895;SDS011;23733;53.254;10.430;2022-07-18T07:44:20;5.17;;;2.70;;
37895;SDS011;23733;53.254;10.430;2022-07-18T07:46:46;3.53;;;2.27;;
37895;SDS011;23733;53.254;10.430;2022-07-18T07:49:12;3.30;;;2.20;;
37895;SDS011;23733;53.254;10.430;2022-07-18T07:51:38;4.07;;;2.47;;
37895;SDS011;23733;53.254;10.430;2022-07-18T07:54:04;3.43;;;2.40;;
37895;SDS011;23733;53.254;10.430;2022-07-18T07:56:31;5.00;;;3.07;;
37895;SDS011;23733;53.254;10.430;2022-07-18T07:58:57;4.47;;;2.77;;
37895;SDS011;23733;53.254;10.430;2022-07-18T08:01:23;5.03;;;3.43;;
37895;SDS011;23733;53.254;10.430;2022-07-18T08:03:49;6.30;;;2.83;;
37895;SDS011;23733;53.254;10.430;2022-07-18T08:06:15;7.13;;;3.30;;
37895;SDS011;23733;53.254;10.430;2022-07-18T08:08:41;9.80;;;3.53;;
37895;SDS011;23733;53.254;10.430;2022-07-18T08:11:07;6.10;;;3.10;;
37895;SDS011;23733;53.254;10.430;2022-07-18T08:13:33;7.33;;;3.27;;
37895;SDS011;23733;53.254;10.430;2022-07-18T08:15:59;5.57;;;3.60;;
37895;SDS011;23733;53.254;10.430;2022-07-18T08:18:25;9.13;;;4.20;;
37895;SDS011;23733;53.254;10.430;2022-07-18T08:20:51;5.73;;;3.53;;
37895;SDS011;23733;53.254;10.430;2022-07-18T08:23:17;5.97;;;3.60;;
37895;SDS011;23733;53.254;10.430;2022-07-18T08:25:44;8.03;;;4.10;;
37895;SDS011;23733;53.254;10.430;2022-07-18T08:28:11;7.13;;;4.10;;
37895;SDS011;23733;53.254;10.430;2022-07-18T08:30:38;7.07;;;4.27;;
37895;SDS011;23733;53.254;10.430;2022-07-18T08:33:05;7.03;;;4.33;;
37895;SDS011;23733;53.254;10.430;2022-07-18T08:35:32;7.83;;;4.10;;
37895;SDS011;23733;53.254;10.430;2022-07-18T08:37:58;7.73;;;4.10;;
37895;SDS011;23733;53.254;10.430;2022-07-18T08:40:26;5.93;;;3.57;;
37895;SDS011;23733;53.254;10.430;2022-07-18T08:42:53;5.43;;;4.07;;
37895;SDS011;23733;53.254;10.430;2022-07-18T08:45:21;5.67;;;3.90;;
37895;SDS011;23733;53.254;10.430;2022-07-18T08:47:48;6.67;;;4.30;;
37895;SDS011;23733;53.254;10.430;2022-07-18T08:50:14;6.07;;;4.30;;
37895;SDS011;23733;53.254;10.430;2022-07-18T08:52:40;8.10;;;4.40;;
37895;SDS011;23733;53.254;10.430;2022-07-18T08:55:07;6.57;;;4.30;;
37895;SDS011;23733;53.254;10.430;2022-07-18T08:57:33;6.70;;;4.30;;
37895;SDS011;23733;53.254;10.430;2022-07-18T09:00:02;5.90;;;4.47;;
37895;SDS011;23733;53.254;10.430;2022-07-18T09:02:29;5.17;;;3.90;;
37895;SDS011;23733;53.254;10.430;2022-07-18T09:04:55;7.47;;;4.70;;
37895;SDS011;23733;53.254;10.430;2022-07-18T09:07:28;5.87;;;4.13;;
37895;SDS011;23733;53.254;10.430;2022-07-18T09:09:57;7.47;;;4.40;;
37895;SDS011;23733;53.254;10.430;2022-07-18T09:12:25;9.23;;;4.37;;
37895;SDS011;23733;53.254;10.430;2022-07-18T09:14:53;6.47;;;4.17;;
37895;SDS011;23733;53.254;10.430;2022-07-18T09:17:24;6.07;;;3.80;;
37895;SDS011;23733;53.254;10.430;2022-07-18T09:20:02;6.60;;;3.87;;
37895;SDS011;23733;53.254;10.430;2022-07-18T09:22:35;5.83;;;3.30;;
37895;SDS011;23733;53.254;10.430;2022-07-18T09:27:40;5.43;;;3.43;;
37895;SDS011;23733;53.254;10.430;2022-07-18T09:32:42;4.40;;;3.40;;
37895;SDS011;23733;53.254;10.430;2022-07-18T09:35:11;3.97;;;3.00;;
37895;SDS011;23733;53.254;10.430;2022-07-18T09:37:39;6.33;;;3.43;;
37895;SDS011;23733;53.254;10.430;2022-07-18T09:42:40;4.77;;;3.20;;
37895;SDS011;23733;53.254;10.430;2022-07-18T09:45:07;7.57;;;3.53;;
37895;SDS011;23733;53.254;10.430;2022-07-18T09:47:47;5.33;;;3.23;;
37895;SDS011;23733;53.254;10.430;2022-07-18T09:50:22;4.47;;;3.20;;
37895;SDS011;23733;53.254;10.430;2022-07-18T09:53:04;5.97;;;3.60;;
37895;SDS011;23733;53.254;10.430;2022-07-18T09:55:42;4.17;;;3.33;;
37895;SDS011;23733;53.254;10.430;2022-07-18T09:58:10;4.97;;;3.37;;
37895;SDS011;23733;53.254;10.430;2022-07-18T10:00:38;7.13;;;3.60;;
37895;SDS011;23733;53.254;10.430;2022-07-18T10:03:05;6.13;;;3.90;;
37895;SDS011;23733;53.254;10.430;2022-07-18T10:05:33;6.00;;;3.70;;
37895;SDS011;23733;53.254;10.430;2022-07-18T10:08:01;5.87;;;3.90;;
37895;SDS011;23733;53.254;10.430;2022-07-18T10:10:29;6.40;;;3.97;;
37895;SDS011;23733;53.254;10.430;2022-07-18T10:12:58;6.45;;;4.00;;
37895;SDS011;23733;53.254;10.430;2022-07-18T10:15:27;5.90;;;3.93;;
37895;SDS011;23733;53.254;10.430;2022-07-18T10:17:54;8.30;;;3.97;;
37895;SDS011;23733;53.254;10.430;2022-07-18T10:20:25;6.65;;;3.85;;
37895;SDS011;23733;53.254;10.430;2022-07-18T10:22:56;6.13;;;4.15;;
37895;SDS011;23733;53.254;10.430;2022-07-18T10:25:25;6.85;;;4.13;;
37895;SDS011;23733;53.254;10.430;2022-07-18T10:30:29;5.23;;;4.00;;
37895;SDS011;23733;53.254;10.430;2022-07-18T10:32:55;4.53;;;3.70;;
37895;SDS011;23733;53.254;10.430;2022-07-18T10:35:57;7.32;;;4.03;;
37895;SDS011;23733;53.254;10.430;2022-07-18T10:38:23;7.38;;;3.50;;
37895;SDS011;23733;53.254;10.430;2022-07-18T10:41:05;4.80;;;3.22;;
37895;SDS011;23733;53.254;10.430;2022-07-18T10:43:34;6.38;;;3.63;;
37895;SDS011;23733;53.254;10.430;2022-07-18T10:46:03;4.50;;;3.50;;
37895;SDS011;23733;53.254;10.430;2022-07-18T10:50:59;6.00;;;3.92;;
37895;SDS011;23733;53.254;10.430;2022-07-18T10:53:54;5.22;;;3.20;;
37895;SDS011;23733;53.254;10.430;2022-07-18T10:58:56;4.38;;;3.40;;
37895;SDS011;23733;53.254;10.430;2022-07-18T11:01:24;5.13;;;3.10;;
37895;SDS011;23733;53.254;10.430;2022-07-18T11:06:54;3.35;;;2.97;;
37895;SDS011;23733;53.254;10.430;2022-07-18T11:09:40;4.55;;;2.92;;
37895;SDS011;23733;53.254;10.430;2022-07-18T11:15:06;4.05;;;2.90;;
37895;SDS011;23733;53.254;10.430;2022-07-18T11:22:59;5.13;;;2.95;;
37895;SDS011;23733;53.254;10.430;2022-07-18T11:25:27;6.07;;;2.78;;
37895;SDS011;23733;53.254;10.430;2022-07-18T11:27:55;6.05;;;2.70;;
37895;SDS011;23733;53.254;10.430;2022-07-18T11:30:22;6.05;;;2.70;;
37895;SDS011;23733;53.254;10.430;2022-07-18T11:32:49;4.35;;;2.63;;
37895;SDS011;23733;53.254;10.430;2022-07-18T11:35:22;4.95;;;2.95;;
37895;SDS011;23733;53.254;10.430;2022-07-18T11:37:50;4.53;;;2.50;;
37895;SDS011;23733;53.254;10.430;2022-07-18T11:40:16;5.30;;;2.95;;
37895;SDS011;23733;53.254;10.430;2022-07-18T11:42:43;3.78;;;2.60;;
37895;SDS011;23733;53.254;10.430;2022-07-18T11:45:10;5.78;;;2.85;;
37895;SDS011;23733;53.254;10.430;2022-07-18T11:47:50;4.03;;;2.45;;
37895;SDS011;23733;53.254;10.430;2022-07-18T11:50:18;3.58;;;2.47;;
37895;SDS011;23733;53.254;10.430;2022-07-18T11:53:02;4.03;;;2.50;;
37895;SDS011;23733;53.254;10.430;2022-07-18T11:55:31;3.85;;;2.53;;
37895;SDS011;23733;53.254;10.430;2022-07-18T11:58:11;4.53;;;2.35;;
37895;SDS011;23733;53.254;10.430;2022-07-18T12:00:39;4.07;;;2.70;;
37895;SDS011;23733;53.254;10.430;2022-07-18T12:03:11;6.60;;;2.70;;
37895;SDS011;23733;53.254;10.430;2022-07-18T12:05:46;4.45;;;2.55;;
37895;SDS011;23733;53.254;10.430;2022-07-18T12:11:41;5.80;;;2.53;;
37895;SDS011;23733;53.254;10.430;2022-07-18T12:13:59;3.83;;;2.63;;
37895;SDS011;23733;53.254;10.430;2022-07-18T12:16:31;3.95;;;2.47;;
37895;SDS011;23733;53.254;10.430;2022-07-18T12:19:01;3.63;;;2.40;;
37895;SDS011;23733;53.254;10.430;2022-07-18T12:32:41;4.13;;;2.65;;
37895;SDS011;23733;53.254;10.430;2022-07-18T12:35:14;3.63;;;2.35;;
37895;SDS011;23733;53.254;10.430;2022-07-18T12:37:41;2.92;;;2.30;;
37895;SDS011;23733;53.254;10.430;2022-07-18T12:40:16;4.00;;;2.30;;
37895;SDS011;23733;53.254;10.430;2022-07-18T12:42:42;5.32;;;2.28;;
37895;SDS011;23733;53.254;10.430;2022-07-18T12:45:08;7.22;;;2.30;;
37895;SDS011;23733;53.254;10.430;2022-07-18T12:47:35;3.92;;;2.03;;
37895;SDS011;23733;53.254;10.430;2022-07-18T12:50:03;3.38;;;2.35;;
37895;SDS011;23733;53.254;10.430;2022-07-18T12:52:30;3.28;;;2.30;;
37895;SDS011;23733;53.254;10.430;2022-07-18T12:54:57;2.38;;;1.77;;
37895;SDS011;23733;53.254;10.430;2022-07-18T12:57:23;3.03;;;2.03;;
37895;SDS011;23733;53.254;10.430;2022-07-18T12:59:49;4.10;;;2.03;;
37895;SDS011;23733;53.254;10.430;2022-07-18T13:02:15;5.07;;;2.35;;
37895;SDS011;23733;53.254;10.430;2022-07-18T13:04:42;3.70;;;2.33;;
37895;SDS011;23733;53.254;10.430;2022-07-18T13:07:08;3.35;;;2.15;;
37895;SDS011;23733;53.254;10.430;2022-07-18T13:09:34;3.08;;;1.92;;
37895;SDS011;23733;53.254;10.430;2022-07-18T13:12:01;3.97;;;2.10;;
37895;SDS011;23733;53.254;10.430;2022-07-18T13:14:27;5.30;;;2.15;;
37895;SDS011;23733;53.254;10.430;2022-07-18T13:16:53;4.90;;;1.80;;
37895;SDS011;23733;53.254;10.430;2022-07-18T13:19:20;3.80;;;2.10;;
37895;SDS011;23733;53.254;10.430;2022-07-18T13:21:46;3.13;;;1.98;;
37895;SDS011;23733;53.254;10.430;2022-07-18T13:24:13;2.70;;;1.60;;
37895;SDS011;23733;53.254;10.430;2022-07-18T13:26:40;2.33;;;1.90;;
37895;SDS011;23733;53.254;10.430;2022-07-18T13:29:07;4.05;;;1.80;;
37895;SDS011;23733;53.254;10.430;2022-07-18T13:31:34;3.05;;;1.77;;
37895;SDS011;23733;53.254;10.430;2022-07-18T13:34:01;2.20;;;1.70;;
37895;SDS011;23733;53.254;10.430;2022-07-18T13:36:28;3.42;;;2.00;;
37895;SDS011;23733;53.254;10.430;2022-07-18T13:38:54;6.47;;;1.90;;
37895;SDS011;23733;53.254;10.430;2022-07-18T13:41:21;6.25;;;2.13;;
37895;SDS011;23733;53.254;10.430;2022-07-18T13:43:47;4.07;;;2.03;;
37895;SDS011;23733;53.254;10.430;2022-07-18T13:46:13;4.95;;;2.30;;
37895;SDS011;23733;53.254;10.430;2022-07-18T13:48:39;9.65;;;2.30;;
37895;SDS011;23733;53.254;10.430;2022-07-18T13:51:05;2.20;;;1.80;;
37895;SDS011;23733;53.254;10.430;2022-07-18T13:53:32;2.97;;;1.80;;
37895;SDS011;23733;53.254;10.430;2022-07-18T13:55:58;3.42;;;1.80;;
37895;SDS011;23733;53.254;10.430;2022-07-18T13:58:24;2.58;;;1.83;;
37895;SDS011;23733;53.254;10.430;2022-07-18T14:00:50;2.65;;;1.70;;
37895;SDS011;23733;53.254;10.430;2022-07-18T14:03:16;1.98;;;1.65;;
37895;SDS011;23733;53.254;10.430;2022-07-18T14:05:43;5.82;;;1.73;;
37895;SDS011;23733;53.254;10.430;2022-07-18T14:08:09;5.70;;;1.70;;
37895;SDS011;23733;53.254;10.430;2022-07-18T14:10:35;4.97;;;1.80;;
37895;SDS011;23733;53.254;10.430;2022-07-18T14:13:02;2.72;;;1.60;;
37895;SDS011;23733;53.254;10.430;2022-07-18T14:15:28;2.83;;;1.75;;
37895;SDS011;23733;53.254;10.430;2022-07-18T14:17:54;2.40;;;1.63;;
37895;SDS011;23733;53.254;10.430;2022-07-18T14:20:20;2.28;;;1.50;;
37895;SDS011;23733;53.254;10.430;2022-07-18T14:22:47;1.80;;;1.42;;
37895;SDS011;23733;53.254;10.430;2022-07-18T14:25:14;4.13;;;1.98;;
37895;SDS011;23733;53.254;10.430;2022-07-18T14:27:41;3.53;;;1.77;;
37895;SDS011;23733;53.254;10.430;2022-07-18T14:30:09;3.30;;;1.98;;
37895;SDS011;23733;53.254;10.430;2022-07-18T14:32:37;2.47;;;1.80;;
37895;SDS011;23733;53.254;10.430;2022-07-18T14:35:04;2.70;;;1.55;;
37895;SDS011;23733;53.254;10.430;2022-07-18T14:37:30;4.43;;;1.90;;
37895;SDS011;23733;53.254;10.430;2022-07-18T14:39:56;2.60;;;1.85;;
37895;SDS011;23733;53.254;10.430;2022-07-18T14:42:23;3.58;;;1.75;;
37895;SDS011;23733;53.254;10.430;2022-07-18T14:44:50;2.15;;;1.50;;
37895;SDS011;23733;53.254;10.430;2022-07-18T14:47:16;3.10;;;1.70;;
37895;SDS011;23733;53.254;10.430;2022-07-18T14:49:43;2.13;;;1.52;;
37895;SDS011;23733;53.254;10.430;2022-07-18T14:52:09;4.18;;;1.98;;
37895;SDS011;23733;53.254;10.430;2022-07-18T14:54:35;4.05;;;1.50;;
37895;SDS011;23733;53.254;10.430;2022-07-18T14:57:01;2.17;;;1.70;;
37895;SDS011;23733;53.254;10.430;2022-07-18T14:59:31;3.13;;;1.70;;
37895;SDS011;23733;53.254;10.430;2022-07-18T15:01:57;4.63;;;1.58;;
37895;SDS011;23733;53.254;10.430;2022-07-18T15:04:24;1.90;;;1.42;;
37895;SDS011;23733;53.254;10.430;2022-07-18T15:06:51;6.38;;;1.80;;
37895;SDS011;23733;53.254;10.430;2022-07-18T15:09:17;2.67;;;1.60;;
37895;SDS011;23733;53.254;10.430;2022-07-18T15:11:43;4.47;;;1.85;;
37895;SDS011;23733;53.254;10.430;2022-07-18T15:14:09;2.22;;;1.45;;
37895;SDS011;23733;53.254;10.430;2022-07-18T15:16:35;4.82;;;1.92;;